createdAt,value
2019-01-22T06:33:06.208Z,10.87
2019-01-22T06:36:32.022Z,10.13
2019-01-22T06:39:48.766Z,10.37
2019-01-22T06:43:03.948Z,9.70
2019-01-22T06:46:18.822Z,8.97
2019-01-22T06:49:38.290Z,8.50
2019-01-22T06:52:49.308Z,7.90
2019-01-22T06:55:53.786Z,8.30
2019-01-22T06:59:06.524Z,7.80
2019-01-22T07:02:02.757Z,8.60
2019-01-22T07:05:06.301Z,10.13
2019-01-22T07:08:21.682Z,9.63
2019-01-22T07:11:11.110Z,8.50
2019-01-22T07:14:22.753Z,8.23
2019-01-22T07:17:23.686Z,9.60
2019-01-22T07:20:19.447Z,7.27
2019-01-22T07:23:15.792Z,8.77
2019-01-22T07:26:22.973Z,7.50
2019-01-22T07:29:14.471Z,8.23
2019-01-22T07:32:10.010Z,7.93
2019-01-22T07:35:26.450Z,9.07
2019-01-22T07:38:23.948Z,7.07
2019-01-22T07:41:33.616Z,9.17
2019-01-22T07:44:36.578Z,7.90
2019-01-22T07:47:36.521Z,7.23
2019-01-22T07:50:21.801Z,6.87
2019-01-22T07:53:01.708Z,6.33
2019-01-22T07:55:59.500Z,8.20
2019-01-22T07:58:53.706Z,7.00
2019-01-22T08:02:22.672Z,7.00
2019-01-22T08:05:46.970Z,6.43
2019-01-22T08:08:43.693Z,5.50
2019-01-22T08:11:40.950Z,7.03
2019-01-22T08:15:12.627Z,5.87
2019-01-22T08:18:22.742Z,6.20
2019-01-22T08:21:17.081Z,6.77
2019-01-22T08:24:34.629Z,7.07
2019-01-22T08:27:30.360Z,6.70
2019-01-22T08:30:49.713Z,5.73
2019-01-22T08:34:00.633Z,5.40
2019-01-22T08:37:05.904Z,5.83
2019-01-22T08:40:02.058Z,6.37
2019-01-22T08:43:15.248Z,5.97
2019-01-22T08:46:14.475Z,5.07
2019-01-22T08:49:23.676Z,6.20
2019-01-22T08:52:31.350Z,4.90
2019-01-22T08:55:40.084Z,6.23
2019-01-22T08:58:55.606Z,5.43
2019-01-22T09:01:50.296Z,5.70
2019-01-22T09:05:28.112Z,5.93
2019-01-22T09:08:39.042Z,5.33
2019-01-22T09:11:41.129Z,5.20
2019-01-22T09:14:37.950Z,5.87
2019-01-22T09:17:34.862Z,5.10
2019-01-22T09:20:40.573Z,5.90
2019-01-22T09:23:45.777Z,5.47
2019-01-22T09:26:31.273Z,5.00
2019-01-22T09:29:25.775Z,5.50
2019-01-22T09:32:19.527Z,5.00
2019-01-22T09:35:15.868Z,5.57
2019-01-22T09:37:55.394Z,5.47
2019-01-22T09:40:25.208Z,5.80
2019-01-22T09:42:55.034Z,5.27
2019-01-22T09:45:24.935Z,5.03
2019-01-22T09:47:54.743Z,4.47
2019-01-22T09:50:24.577Z,5.60
2019-01-22T09:52:55.333Z,4.97
2019-01-22T09:55:25.123Z,4.57
2019-01-22T09:57:54.906Z,4.80
2019-01-22T10:00:24.899Z,4.40
2019-01-22T10:02:54.757Z,6.93
2019-01-22T10:05:24.382Z,4.63
2019-01-22T10:07:54.154Z,4.90
2019-01-22T10:10:24.081Z,4.73
2019-01-22T10:12:53.941Z,5.20
2019-01-22T10:15:24.123Z,4.53
2019-01-22T10:17:55.638Z,5.07
2019-01-22T10:20:25.424Z,4.37
2019-01-22T10:22:55.265Z,5.43
2019-01-22T10:25:29.431Z,5.67
2019-01-22T10:27:56.544Z,5.07
2019-01-22T10:30:28.034Z,4.93
2019-01-22T10:32:57.682Z,4.60
2019-01-22T10:35:27.517Z,4.77
2019-01-22T10:37:57.239Z,4.20
2019-01-22T10:40:27.062Z,5.40
2019-01-22T10:42:56.864Z,4.80
2019-01-22T10:45:26.599Z,5.30
2019-01-22T10:47:56.387Z,4.63
2019-01-22T10:50:26.301Z,5.27
2019-01-22T10:52:56.086Z,4.87
2019-01-22T10:55:25.893Z,4.40
2019-01-22T10:57:56.909Z,4.27
2019-01-22T11:00:31.403Z,4.60
2019-01-22T11:03:01.198Z,4.83
2019-01-22T11:05:41.458Z,5.83
2019-01-22T11:08:11.257Z,5.23
2019-01-22T11:10:41.021Z,5.70
2019-01-22T11:13:10.789Z,5.80
2019-01-22T11:15:40.564Z,4.77
2019-01-22T11:18:11.214Z,4.73
2019-01-22T11:20:40.959Z,4.90
2019-01-22T11:23:10.694Z,4.77
2019-01-22T11:25:43.612Z,5.17
2019-01-22T11:28:13.707Z,4.30
2019-01-22T11:30:43.496Z,4.57
2019-01-22T11:33:13.273Z,4.77
2019-01-22T11:35:43.049Z,4.83
2019-01-22T11:38:12.968Z,4.73
2019-01-22T11:40:45.239Z,4.37
2019-01-22T11:43:15.007Z,4.50
2019-01-22T11:45:44.826Z,5.30
2019-01-22T11:48:14.645Z,5.40
2019-01-22T11:50:46.203Z,4.37
2019-01-22T11:53:17.601Z,5.50
2019-01-22T11:55:50.661Z,4.97
2019-01-22T11:58:18.625Z,5.20
2019-01-22T12:01:06.822Z,4.07
2019-01-22T12:03:36.636Z,5.27
2019-01-22T12:06:06.556Z,4.50
2019-01-22T12:08:37.422Z,4.00
2019-01-22T12:11:07.221Z,5.73
2019-01-22T12:13:36.922Z,5.07
2019-01-22T12:16:06.725Z,5.10
2019-01-22T12:18:36.513Z,4.90
2019-01-22T12:21:06.435Z,4.80
2019-01-22T12:23:36.261Z,4.50
2019-01-22T12:26:07.414Z,6.40
2019-01-22T12:28:38.210Z,4.60
2019-01-22T12:31:08.003Z,4.87
2019-01-22T12:33:37.871Z,5.27
2019-01-22T12:36:08.595Z,4.07
2019-01-22T12:38:38.378Z,3.97
2019-01-22T12:41:08.136Z,5.07
2019-01-22T12:43:37.910Z,5.17
2019-01-22T12:46:07.741Z,4.87
2019-01-22T12:48:40.838Z,5.07
2019-01-22T12:51:10.590Z,4.60
2019-01-22T12:53:40.445Z,5.83
2019-01-22T12:56:10.202Z,5.73
2019-01-22T12:58:39.948Z,5.10
2019-01-22T13:01:10.614Z,5.33
2019-01-22T13:03:40.359Z,5.03
2019-01-22T13:06:10.104Z,5.27
2019-01-22T13:08:41.642Z,5.23
2019-01-22T13:11:11.580Z,4.70
2019-01-22T13:13:41.365Z,4.63
2019-01-22T13:16:11.174Z,5.00
2019-01-22T13:18:41.016Z,4.70
2019-01-22T13:21:10.797Z,4.20
2019-01-22T13:23:40.526Z,4.53
2019-01-22T13:26:11.704Z,5.33
2019-01-22T13:28:43.355Z,4.23
2019-01-22T13:31:13.087Z,4.83
2019-01-22T13:33:42.977Z,5.03
2019-01-22T13:36:12.725Z,5.13
2019-01-22T13:38:42.547Z,4.80
2019-01-22T13:41:13.178Z,4.57
2019-01-22T13:43:42.888Z,4.73
2019-01-22T13:46:12.718Z,4.23
2019-01-22T13:48:42.399Z,4.20
2019-01-22T13:51:13.570Z,5.00
2019-01-22T13:53:43.373Z,4.27
2019-01-22T13:56:18.480Z,4.50
2019-01-22T13:58:44.713Z,5.47
2019-01-22T14:01:14.407Z,3.77
2019-01-22T14:03:44.106Z,4.57
2019-01-22T14:06:13.984Z,4.00
2019-01-22T14:08:45.163Z,4.27
2019-01-22T14:11:14.767Z,4.40
2019-01-22T14:13:44.512Z,4.67
2019-01-22T14:16:14.311Z,4.30
2019-01-22T14:18:44.141Z,4.40
2019-01-22T14:21:13.932Z,5.23
2019-01-22T14:23:43.602Z,4.10
2019-01-22T14:26:13.372Z,4.03
2019-01-22T14:28:43.134Z,4.93
2019-01-22T14:31:13.958Z,4.23
2019-01-22T14:33:43.824Z,3.90
2019-01-22T14:36:13.684Z,4.37
2019-01-22T14:38:43.422Z,4.37
2019-01-22T14:41:13.155Z,4.43
2019-01-22T14:43:42.942Z,4.53
2019-01-22T14:46:12.749Z,4.40
2019-01-22T14:48:42.485Z,4.50
2019-01-22T14:51:12.167Z,4.20
2019-01-22T14:53:42.029Z,4.57
2019-01-22T14:56:11.614Z,4.53
2019-01-22T14:58:41.392Z,3.70
2019-01-22T15:01:11.313Z,3.80
2019-01-22T15:03:41.525Z,4.60
2019-01-22T15:06:11.465Z,3.93
2019-01-22T15:08:41.331Z,4.50
2019-01-22T15:11:11.062Z,4.07
2019-01-22T15:13:40.898Z,3.80
2019-01-22T15:16:12.282Z,4.30
2019-01-22T15:18:42.066Z,3.60
2019-01-22T15:21:11.895Z,4.23
2019-01-22T15:23:41.514Z,3.90
2019-01-22T15:26:13.109Z,3.63
2019-01-22T15:28:44.391Z,4.20
2019-01-22T15:31:14.358Z,3.60
2019-01-22T15:33:44.206Z,4.10
2019-01-22T15:36:14.010Z,3.93
2019-01-22T15:38:43.815Z,4.23
2019-01-22T15:41:13.657Z,3.80
2019-01-22T15:43:44.768Z,3.50
2019-01-22T15:46:14.557Z,4.60
2019-01-22T15:48:44.349Z,4.10
2019-01-22T15:51:14.148Z,4.27
2019-01-22T15:53:43.902Z,5.30
2019-01-22T15:56:13.669Z,4.53
2019-01-22T15:58:43.449Z,5.00
2019-01-22T16:01:13.281Z,4.07
2019-01-22T16:03:45.702Z,4.10
2019-01-22T16:06:15.516Z,4.67
2019-01-22T16:08:45.210Z,5.03
2019-01-22T16:11:15.004Z,4.73
2019-01-22T16:13:44.853Z,4.47
2019-01-22T16:16:14.533Z,4.27
2019-01-22T16:18:44.369Z,5.17
2019-01-22T16:21:14.576Z,5.20
2019-01-22T16:23:44.344Z,5.07
2019-01-22T16:26:14.103Z,6.80
2019-01-22T16:28:43.961Z,6.70
2019-01-22T16:31:13.810Z,6.70
2019-01-22T16:33:43.567Z,5.57
2019-01-22T16:36:14.107Z,6.10
2019-01-22T16:38:45.084Z,5.20
2019-01-22T16:41:14.801Z,5.20
2019-01-22T16:43:44.535Z,5.20
2019-01-22T16:46:14.421Z,4.50
2019-01-22T16:48:44.227Z,4.10
2019-01-22T16:51:15.040Z,7.07
2019-01-22T16:53:44.818Z,4.57
2019-01-22T16:56:16.164Z,4.57
2019-01-22T16:58:47.677Z,4.60
2019-01-22T17:01:17.622Z,5.10
2019-01-22T17:03:47.394Z,4.73
2019-01-22T17:06:17.217Z,4.50
2019-01-22T17:08:46.974Z,3.60
2019-01-22T17:11:16.802Z,4.57
2019-01-22T17:13:46.631Z,4.53
2019-01-22T17:16:17.974Z,3.60
2019-01-22T17:18:47.925Z,3.73
2019-01-22T17:21:17.753Z,6.33
2019-01-22T17:23:47.473Z,3.67
2019-01-22T17:26:17.249Z,3.70
2019-01-22T17:28:47.103Z,4.97
2019-01-22T17:31:38.763Z,3.90
2019-01-22T17:34:10.391Z,3.60
2019-01-22T17:36:41.519Z,3.77
2019-01-22T17:39:11.391Z,3.83
2019-01-22T17:41:41.179Z,5.67
2019-01-22T17:44:11.136Z,4.10
2019-01-22T17:46:41.042Z,4.20
2019-01-22T17:49:10.812Z,5.30
2019-01-22T17:51:40.670Z,3.60
2019-01-22T17:54:10.553Z,3.83
2019-01-22T17:56:41.351Z,3.80
2019-01-22T17:59:11.203Z,4.47
2019-01-22T18:01:42.033Z,4.10
2019-01-22T18:04:11.774Z,5.60
2019-01-22T18:06:43.158Z,4.87
2019-01-22T18:09:13.748Z,5.00
2019-01-22T18:11:43.605Z,4.97
2019-01-22T18:14:13.460Z,6.50
2019-01-22T18:16:43.118Z,5.67
2019-01-22T18:19:13.009Z,5.60
2019-01-22T18:21:42.758Z,5.57
2019-01-22T18:24:12.561Z,5.40
2019-01-22T18:26:42.389Z,5.70
2019-01-22T18:29:12.379Z,5.50
2019-01-22T18:31:42.186Z,5.60
2019-01-22T18:34:13.133Z,5.73
2019-01-22T18:36:42.736Z,6.80
2019-01-22T18:39:12.673Z,5.90
2019-01-22T18:41:42.521Z,7.30
2019-01-22T18:44:12.165Z,6.80
2019-01-22T18:46:44.402Z,7.20
2019-01-22T18:49:14.215Z,8.20
2019-01-22T18:51:43.954Z,8.07
2019-01-22T18:54:13.784Z,7.30
2019-01-22T18:56:43.670Z,8.73
2019-01-22T18:59:14.847Z,7.30
2019-01-22T19:01:44.776Z,8.30
2019-01-22T19:04:14.439Z,7.30
2019-01-22T19:06:44.303Z,7.87
2019-01-22T19:09:14.050Z,7.37
2019-01-22T19:11:43.938Z,7.57
2019-01-22T19:14:13.825Z,7.80
2019-01-22T19:16:44.575Z,7.13
2019-01-22T19:19:14.441Z,6.40
2019-01-22T19:21:44.257Z,6.10
2019-01-22T19:24:14.022Z,7.03
2019-01-22T19:26:43.878Z,6.90
2019-01-22T19:29:13.790Z,6.10
2019-01-22T19:31:43.663Z,5.47
2019-01-22T19:34:13.526Z,5.90
2019-01-22T19:36:43.154Z,5.60
2019-01-22T19:39:13.180Z,5.67
2019-01-22T19:41:43.055Z,6.07
2019-01-22T19:44:14.751Z,5.43
2019-01-22T19:46:46.269Z,5.80
2019-01-22T19:49:15.950Z,4.70
2019-01-22T19:51:45.735Z,5.43
2019-01-22T19:54:17.294Z,5.60
2019-01-22T19:56:46.993Z,5.03
2019-01-22T19:59:16.942Z,5.30
2019-01-22T20:01:46.966Z,5.80
2019-01-22T20:04:16.661Z,5.70
2019-01-22T20:06:46.489Z,5.80
2019-01-22T20:09:16.351Z,5.33
2019-01-22T20:11:46.083Z,5.30
2019-01-22T20:14:15.925Z,5.03
2019-01-22T20:16:45.566Z,4.83
2019-01-22T20:19:15.310Z,3.90
2019-01-22T20:21:45.165Z,4.00
2019-01-22T20:24:17.053Z,4.33
2019-01-22T20:26:46.947Z,4.83
2019-01-22T20:29:16.705Z,4.47
2019-01-22T20:31:46.546Z,4.43
2019-01-22T20:34:16.349Z,4.53
2019-01-22T20:36:46.134Z,3.80
2019-01-22T20:39:15.869Z,4.20
2019-01-22T20:41:45.578Z,4.80
2019-01-22T20:44:15.276Z,4.13
2019-01-22T20:46:46.792Z,4.27
2019-01-22T20:49:16.527Z,4.53
2019-01-22T20:51:46.414Z,3.60
2019-01-22T20:54:16.342Z,4.20
2019-01-22T20:56:46.155Z,3.60
2019-01-22T20:59:15.970Z,3.97
2019-01-22T21:01:45.733Z,3.53
2019-01-22T21:04:17.236Z,4.27
2019-01-22T21:06:47.063Z,3.67
2019-01-22T21:09:33.575Z,3.40
2019-01-22T21:12:03.452Z,3.93
2019-01-22T21:14:33.485Z,3.40
2019-01-22T21:17:04.792Z,4.10
2019-01-22T21:19:34.648Z,3.17
2019-01-22T21:22:04.479Z,3.60
2019-01-22T21:24:35.910Z,3.40
2019-01-22T21:27:05.853Z,3.30
2019-01-22T21:29:36.792Z,3.70
2019-01-22T21:32:06.647Z,3.90
2019-01-22T21:34:36.814Z,3.77
2019-01-22T21:37:06.615Z,3.70
2019-01-22T21:39:36.482Z,3.90
2019-01-22T21:42:06.257Z,4.63
2019-01-22T21:44:36.015Z,3.60
2019-01-22T21:47:08.149Z,2.77
2019-01-22T21:49:37.895Z,3.73
2019-01-22T21:52:07.803Z,3.33
2019-01-22T21:54:37.748Z,3.30
2019-01-22T21:57:07.480Z,3.00
2019-01-22T21:59:38.281Z,3.30
2019-01-22T22:02:08.355Z,3.30
2019-01-22T22:04:38.084Z,3.03
2019-01-22T22:07:07.923Z,3.30
2019-01-22T22:09:37.626Z,3.70
2019-01-22T22:12:08.810Z,3.30
2019-01-22T22:14:38.608Z,3.87
2019-01-22T22:17:08.223Z,4.00
2019-01-22T22:19:38.047Z,3.30
2019-01-22T22:22:07.726Z,3.33
2019-01-22T22:24:37.405Z,3.30
2019-01-22T22:27:07.226Z,3.57
2019-01-22T22:29:38.032Z,3.80
2019-01-22T22:32:07.835Z,3.43
2019-01-22T22:34:37.711Z,2.43
2019-01-22T22:37:07.564Z,3.00
2019-01-22T22:39:38.629Z,3.57
2019-01-22T22:42:08.487Z,2.97
2019-01-22T22:44:41.019Z,3.70
2019-01-22T22:47:10.850Z,3.83
2019-01-22T22:49:40.599Z,3.17
2019-01-22T22:52:10.556Z,3.70
2019-01-22T22:54:40.366Z,3.30
2019-01-22T22:57:10.151Z,3.37
2019-01-22T22:59:40.002Z,3.27
2019-01-22T23:02:09.904Z,3.47
2019-01-22T23:04:39.699Z,3.57
2019-01-22T23:07:09.510Z,3.40
2019-01-22T23:09:39.329Z,3.23
2019-01-22T23:12:09.141Z,3.47
2019-01-22T23:14:38.844Z,4.00
2019-01-22T23:17:08.678Z,3.17
